Climatologie pour Saint-Brevin les Pins
Jour • Résumé pour février 17, 2017 Système :  Métrique    Anglais   Mixte
« - 1 jour
+ 1 jour »
Jour Semaine Mois Année Personnalisé
  Maximum : Minimum : Moyenne :
Température sous abri : -17.8 °C -17.3 °C -14 °C
Point de rosée : -17.8 °C -17.6 °C -14.7 °C
Humidité : Humidity % 78 % 92 %
Vitesse du vent : 0 km/h 0 km/h 0 km/h
Rafale : 0 km/h - -
Direction :- - North
Pression : 0 hPa 34726.8 hPa -
Précipitations : 0 mm    
Historical Graphs
 
 
Tableau de données pour février 17, 2017
Heure Tempé Pt rosée Pression Vent Vitesse Rafale Humidité Taux pluie (/hr) Soleil
-17.8 °C -17.8 °C 0 hPa Calm     Humidity % 0 mm SolarRadiationWatts/m^2 W/m2 Conditions
00:00 -14.9 °C -15.1 °C 34889.3 hPa Calm     97 % 0 mm 0 W/m2
00:10 -15.1 °C -15.4 °C 34889.3 hPa Calm     97 % 0 mm 0 W/m2
00:15 -15.2 °C -15.4 °C 34889.3 hPa Calm     97 % 0 mm 0 W/m2
00:20 -15.2 °C -15.4 °C 34889.3 hPa Calm     97 % 0 mm 0 W/m2
00:25 -15.3 °C -15.5 °C 34889.3 hPa Calm     97 % 0 mm 0 W/m2
00:30 -15.3 °C -15.5 °C 34889.3 hPa Calm     97 % 0 mm 0 W/m2
00:40 -15.5 °C -15.8 °C 34875.8 hPa Calm     97 % 0 mm 0 W/m2
00:45 -15.4 °C -15.6 °C 34875.8 hPa Calm     97 % 0 mm 0 W/m2
00:50 -15.4 °C -15.7 °C 34875.8 hPa Calm     97 % 0 mm 0 W/m2
01:00 -15.6 °C -15.8 °C 34875.8 hPa Calm     97 % 0 mm 0 W/m2
01:10 -15.6 °C -15.8 °C 34875.8 hPa Calm     97 % 0 mm 0 W/m2
01:15 -15.7 °C -15.9 °C 34875.8 hPa Calm     97 % 0 mm 0 W/m2
01:25 -15.8 °C -16 °C 34875.8 hPa Calm     97 % 0 mm 0 W/m2
01:30 -15.9 °C -16.1 °C 34875.8 hPa Calm     97 % 0 mm 0 W/m2
01:40 -16 °C -16.3 °C 34875.8 hPa Calm     97 % 0 mm 0 W/m2
01:45 -16.1 °C -16.3 °C 34875.8 hPa Calm     97 % 0 mm 0 W/m2
01:55 -16.1 °C -16.3 °C 34865.6 hPa Calm     97 % 0 mm 0 W/m2
02:00 -16.2 °C -16.4 °C 34865.6 hPa Calm     97 % 0 mm 0 W/m2
02:10 -16.2 °C -16.4 °C 34865.6 hPa Calm     97 % 0 mm 0 W/m2
02:15 -16.2 °C -16.4 °C 34865.6 hPa Calm     97 % 0 mm 0 W/m2
02:20 -16.3 °C -16.6 °C 34865.6 hPa Calm     97 % 0 mm 0 W/m2
02:25 -16.3 °C -16.6 °C 34865.6 hPa Calm     97 % 0 mm 0 W/m2
02:30 -16.2 °C -16.5 °C 34865.6 hPa Calm     97 % 0 mm 0 W/m2
02:35 -16.2 °C -16.4 °C 34865.6 hPa Calm     97 % 0 mm 0 W/m2
02:40 -16.1 °C -16.3 °C 34865.6 hPa Calm     98 % 0 mm 0 W/m2
02:50 -16.3 °C -16.5 °C 34865.6 hPa Calm     97 % 0 mm 0 W/m2
03:05 -16.3 °C -16.5 °C 34865.6 hPa Calm     97 % 0 mm 0 W/m2
03:10 -16.4 °C -16.7 °C 34865.6 hPa Calm     97 % 0 mm 0 W/m2
03:15 -16.4 °C -16.6 °C 34865.6 hPa Calm     97 % 0 mm 0 W/m2
03:25 -16.3 °C -16.4 °C 34865.6 hPa Calm     98 % 0 mm 0 W/m2
03:35 -16.3 °C -16.6 °C 34865.6 hPa Calm     97 % 0 mm 0 W/m2
03:40 -16.3 °C -16.6 °C 34865.6 hPa Calm     97 % 0 mm 0 W/m2
03:50 -16.4 °C -16.6 °C 34852.1 hPa Calm     97 % 0 mm 0 W/m2
03:55 -16.3 °C -16.4 °C 34852.1 hPa Calm     98 % 0 mm 0 W/m2
04:05 -16.3 °C -16.6 °C 34852.1 hPa Calm     97 % 0 mm 0 W/m2
04:10 -16.3 °C -16.6 °C 34852.1 hPa Calm     97 % 0 mm 0 W/m2
04:20 -16.5 °C -16.7 °C 34852.1 hPa Calm     97 % 0 mm 0 W/m2
04:25 -16.5 °C -16.7 °C 34852.1 hPa Calm     97 % 0 mm 0 W/m2
04:30 -16.6 °C -16.8 °C 34852.1 hPa Calm     97 % 0 mm 0 W/m2
04:40 -16.8 °C -17 °C 34841.9 hPa Calm     97 % 0 mm 0 W/m2
04:45 -16.8 °C -17.1 °C 34841.9 hPa Calm     97 % 0 mm 0 W/m2
04:55 -16.8 °C -17 °C 34841.9 hPa Calm     97 % 0 mm 0 W/m2
05:00 -16.8 °C -17 °C 34841.9 hPa Calm     97 % 0 mm 0 W/m2
05:10 -16.7 °C -16.9 °C 34841.9 hPa Calm     98 % 0 mm 0 W/m2
05:15 -16.6 °C -16.7 °C 34841.9 hPa Calm     98 % 0 mm 0 W/m2
05:20 -16.5 °C -16.7 °C 34841.9 hPa Calm     98 % 0 mm 0 W/m2
05:25 -16.5 °C -16.7 °C 34841.9 hPa Calm     98 % 0 mm 0 W/m2
05:30 -16.7 °C -16.9 °C 34841.9 hPa Calm     97 % 0 mm 0 W/m2
05:40 -16.9 °C -17.1 °C 34841.9 hPa Calm     97 % 0 mm 0 W/m2
05:45 -17 °C -17.2 °C 34841.9 hPa Calm     97 % 0 mm 0 W/m2
05:55 -17.2 °C -17.4 °C 34841.9 hPa Calm     97 % 0 mm 0 W/m2
06:00 -17.2 °C -17.4 °C 34841.9 hPa Calm     97 % 0 mm 0 W/m2
06:10 -17.3 °C -17.4 °C 34841.9 hPa Calm     98 % 0 mm 0 W/m2
06:20 -17.2 °C -17.3 °C 34841.9 hPa Calm     98 % 0 mm 0 W/m2
06:25 -17.1 °C -17.3 °C 34841.9 hPa Calm     98 % 0 mm 0 W/m2
06:30 -17.2 °C -17.3 °C 34841.9 hPa Calm     98 % 0 mm 0 W/m2
06:40 -17.1 °C -17.2 °C 34841.9 hPa Calm     98 % 0 mm 0 W/m2
06:45 -17.2 °C -17.3 °C 34841.9 hPa Calm     98 % 0 mm 0 W/m2
06:55 -17.3 °C -17.6 °C 34841.9 hPa Calm     97 % 0 mm 0 W/m2
07:00 -17.3 °C -17.6 °C 34841.9 hPa Calm     97 % 0 mm 0 W/m2
07:10 -17.1 °C -17.3 °C 34841.9 hPa Calm     98 % 0 mm 0 W/m2
07:15 -17.1 °C -17.3 °C 34831.8 hPa Calm     98 % 0 mm 0 W/m2
07:20 -17.1 °C -17.2 °C 34831.8 hPa Calm     98 % 0 mm 0 W/m2
07:30 -16.9 °C -17.1 °C 34831.8 hPa Calm     98 % 0 mm 0 W/m2
07:40 -16.7 °C -16.8 °C 34831.8 hPa Calm     98 % 0 mm 0 W/m2
07:45 -16.6 °C -16.8 °C 34831.8 hPa Calm     98 % 0 mm 0 W/m2
07:55 -16.7 °C -16.8 °C 34831.8 hPa Calm     98 % 0 mm 0 W/m2
08:00 -16.6 °C -16.8 °C 34831.8 hPa Calm     98 % 0 mm 0 W/m2
08:10 -16.9 °C -17.1 °C 34831.8 hPa Calm     98 % 0 mm 5 W/m2
08:15 -17.1 °C -17.3 °C 34841.9 hPa Calm     97 % 0 mm 7 W/m2
08:25 -17.3 °C -17.6 °C 34841.9 hPa Calm     97 % 0 mm 12 W/m2
08:30 -17.3 °C -17.4 °C 34841.9 hPa Calm     98 % 0 mm 16 W/m2
08:40 -17.1 °C -17.3 °C 34841.9 hPa Calm     98 % 0 mm 25 W/m2
08:50 -17 °C -17.1 °C 34841.9 hPa Calm     98 % 0 mm 32 W/m2
08:55 -16.8 °C -16.9 °C 34841.9 hPa Calm     98 % 0 mm 32 W/m2
09:00 -16.7 °C -16.8 °C 34852.1 hPa Calm     98 % 0 mm 37 W/m2
09:10 -16.3 °C -16.5 °C 34852.1 hPa Calm     98 % 0 mm 42 W/m2
09:15 -16 °C -16.2 °C 34852.1 hPa Calm     98 % 0 mm 42 W/m2
09:25 -15.8 °C -16 °C 34841.9 hPa Calm     98 % 0 mm 51 W/m2
09:30 -15.5 °C -15.6 °C 34852.1 hPa Calm     99 % 0 mm 54 W/m2
09:40 -15.2 °C -15.2 °C 34852.1 hPa Calm     99 % 0 mm 56 W/m2
09:45 -15.1 °C -15.2 °C 34852.1 hPa Calm     98 % 0 mm 58 W/m2
09:55 -14.9 °C -15.1 °C 34852.1 hPa Calm     98 % 0 mm 62 W/m2
10:00 -14.8 °C -14.9 °C 34852.1 hPa Calm     98 % 0 mm 62 W/m2
10:10 -14.4 °C -14.5 °C 34852.1 hPa Calm     99 % 0 mm 65 W/m2
10:15 -14.3 °C -14.4 °C 34852.1 hPa Calm     99 % 0 mm 67 W/m2
10:25 -13.8 °C -14 °C 34852.1 hPa Calm     98 % 0 mm 274 W/m2
10:30 -13.7 °C -13.8 °C 34852.1 hPa Calm     98 % 0 mm 285 W/m2
10:40 -13.3 °C -13.4 °C 34852.1 hPa Calm     98 % 0 mm 308 W/m2
10:45 -13.2 °C -13.4 °C 34852.1 hPa Calm     97 % 0 mm 320 W/m2
10:55 -12.8 °C -13.1 °C 34852.1 hPa Calm     96 % 0 mm 339 W/m2
11:00 -12.6 °C -13 °C 34852.1 hPa Calm     95 % 0 mm 343 W/m2
11:10 -12 °C -12.6 °C 34852.1 hPa Calm     93 % 0 mm 364 W/m2
11:20 -11.7 °C -12.6 °C 34852.1 hPa Calm     90 % 0 mm 371 W/m2
11:25 -11.6 °C -12.5 °C 34852.1 hPa Calm     89 % 0 mm 388 W/m2
11:30 -11.4 °C -12.4 °C 34852.1 hPa Calm     89 % 0 mm 399 W/m2
11:40 -11.3 °C -12.5 °C 34852.1 hPa Calm     87 % 0 mm 397 W/m2
11:50 -11.1 °C -12.4 °C 34852.1 hPa Calm     85 % 0 mm 425 W/m2
11:55 -10.9 °C -12.3 °C 34852.1 hPa Calm     85 % 0 mm 427 W/m2
12:00 -10.8 °C -12.3 °C 34852.1 hPa Calm     84 % 0 mm 431 W/m2
12:10 -10.6 °C -12.2 °C 34841.9 hPa Calm     83 % 0 mm 454 W/m2
12:15 -10.6 °C -12.3 °C 34841.9 hPa Calm     82 % 0 mm 461 W/m2
12:20 -10.4 °C -12.1 °C 34841.9 hPa Calm     82 % 0 mm 461 W/m2
12:25 -10.3 °C -11.9 °C 34841.9 hPa Calm     83 % 0 mm 461 W/m2
12:30 -10.4 °C -12.2 °C 34831.8 hPa Calm     81 % 0 mm 464 W/m2
12:40 -10.3 °C -11.8 °C 34831.8 hPa Calm     83 % 0 mm 462 W/m2
12:45 -10.2 °C -11.9 °C 34831.8 hPa Calm     82 % 0 mm 452 W/m2
12:50 -10.2 °C -11.9 °C 34831.8 hPa Calm     82 % 0 mm 492 W/m2
12:55 -10.1 °C -11.7 °C 34831.8 hPa Calm     82 % 0 mm 503 W/m2
13:05 -10.2 °C -11.8 °C 34831.8 hPa Calm     82 % 0 mm 531 W/m2
13:10 -10 °C -11.9 °C 34831.8 hPa Calm     80 % 0 mm 547 W/m2
13:15 -9.8 °C -11.7 °C 34831.8 hPa Calm     80 % 0 mm 420 W/m2
13:20 -9.8 °C -11.7 °C 34818.2 hPa Calm     80 % 0 mm 663 W/m2
13:25 -9.6 °C -11.6 °C 34818.2 hPa Calm     79 % 0 mm 603 W/m2
13:30 -9.8 °C -11.8 °C 34818.2 hPa Calm     78 % 0 mm 230 W/m2
13:40 -9.9 °C -11.9 °C 34818.2 hPa Calm     79 % 0 mm 229 W/m2
13:45 -10.1 °C -12.1 °C 34818.2 hPa Calm     79 % 0 mm 156 W/m2
13:55 -9.8 °C -11.9 °C 34808.1 hPa Calm     78 % 0 mm 580 W/m2
14:00 -9.7 °C -11.7 °C 34808.1 hPa Calm     79 % 0 mm 606 W/m2
14:10 -9.8 °C -11.8 °C 34808.1 hPa Calm     79 % 0 mm 517 W/m2
14:20 -9.9 °C -11.8 °C 34808.1 hPa Calm     80 % 0 mm 480 W/m2
14:35 -9.9 °C -11.8 °C 34797.9 hPa Calm     80 % 0 mm 445 W/m2
14:40 -9.9 °C -11.8 °C 34797.9 hPa Calm     80 % 0 mm 436 W/m2
14:45 -9.9 °C -11.8 °C 34797.9 hPa Calm     80 % 0 mm 443 W/m2
14:55 -9.8 °C -11.8 °C 34784.4 hPa Calm     79 % 0 mm 417 W/m2
15:00 -9.7 °C -11.8 °C 34784.4 hPa Calm     78 % 0 mm 408 W/m2
15:10 -9.9 °C -11.8 °C 34784.4 hPa Calm     80 % 0 mm 387 W/m2
15:15 -10 °C -11.8 °C 34784.4 hPa Calm     81 % 0 mm 373 W/m2
15:20 -10.2 °C -11.8 °C 34784.4 hPa Calm     82 % 0 mm 360 W/m2
15:30 -10.2 °C -11.9 °C 34774.2 hPa Calm     82 % 0 mm 343 W/m2
15:40 -10.2 °C -11.9 °C 34774.2 hPa Calm     81 % 0 mm 343 W/m2
15:45 -10.1 °C -11.7 °C 34774.2 hPa Calm     82 % 0 mm 332 W/m2
15:50 -10.2 °C -11.9 °C 34774.2 hPa Calm     81 % 0 mm 325 W/m2
15:55 -10.1 °C -11.9 °C 34774.2 hPa Calm     81 % 0 mm 308 W/m2
16:00 -10.3 °C -12.1 °C 34774.2 hPa Calm     81 % 0 mm 304 W/m2
16:10 -10.3 °C -12 °C 34774.2 hPa Calm     82 % 0 mm 285 W/m2
16:15 -10.3 °C -12 °C 34774.2 hPa Calm     82 % 0 mm 279 W/m2
16:20 -10.3 °C -12.1 °C 34774.2 hPa Calm     81 % 0 mm 272 W/m2
16:25 -10.4 °C -12.2 °C 34760.7 hPa Calm     81 % 0 mm 262 W/m2
16:30 -10.4 °C -12.1 °C 34774.2 hPa Calm     82 % 0 mm 253 W/m2
16:40 -10.5 °C -12.1 °C 34774.2 hPa Calm     83 % 0 mm 225 W/m2
16:45 -10.4 °C -12.1 °C 34774.2 hPa Calm     83 % 0 mm 169 W/m2
16:55 -10.7 °C -12.1 °C 34760.7 hPa Calm     84 % 0 mm 123 W/m2
17:00 -10.7 °C -12.2 °C 34760.7 hPa Calm     84 % 0 mm 102 W/m2
17:10 -10.9 °C -12.3 °C 34760.7 hPa Calm     84 % 0 mm 60 W/m2
17:15 -10.9 °C -12.2 °C 34760.7 hPa Calm     85 % 0 mm 53 W/m2
17:20 -10.9 °C -12.3 °C 34760.7 hPa Calm     85 % 0 mm 51 W/m2
17:30 -11 °C -12.3 °C 34750.5 hPa Calm     86 % 0 mm 46 W/m2
17:40 -11.2 °C -12.4 °C 34750.5 hPa Calm     87 % 0 mm 40 W/m2
17:45 -11.3 °C -12.4 °C 34750.5 hPa Calm     87 % 0 mm 39 W/m2
17:55 -11.4 °C -12.6 °C 34750.5 hPa Calm     87 % 0 mm 30 W/m2
18:00 -11.6 °C -12.6 °C 34750.5 hPa Calm     88 % 0 mm 23 W/m2
18:10 -11.8 °C -12.8 °C 34750.5 hPa Calm     88 % 0 mm 19 W/m2
18:15 -12.1 °C -12.9 °C 34750.5 hPa Calm     90 % 0 mm 14 W/m2
18:20 -12.3 °C -13.1 °C 34750.5 hPa Calm     90 % 0 mm 12 W/m2
18:30 -12.6 °C -13.3 °C 34750.5 hPa Calm     91 % 0 mm 5 W/m2
18:40 -12.8 °C -13.4 °C 34750.5 hPa Calm     93 % 0 mm 0 W/m2
18:50 -13.1 °C -13.7 °C 34750.5 hPa Calm     93 % 0 mm 0 W/m2
18:55 -13.3 °C -13.9 °C 34750.5 hPa Calm     93 % 0 mm 0 W/m2
19:00 -13.4 °C -13.9 °C 34750.5 hPa Calm     94 % 0 mm 0 W/m2
19:10 -13.6 °C -14.1 °C 34750.5 hPa Calm     94 % 0 mm 0 W/m2
19:15 -13.8 °C -14.2 °C 34760.7 hPa Calm     95 % 0 mm 0 W/m2
19:25 -13.8 °C -14.3 °C 34760.7 hPa Calm     95 % 0 mm 0 W/m2
19:30 -14.1 °C -14.4 °C 34760.7 hPa Calm     95 % 0 mm 0 W/m2
19:40 -14.1 °C -14.4 °C 34760.7 hPa Calm     96 % 0 mm 0 W/m2
19:50 -14.2 °C -14.5 °C 34750.5 hPa Calm     96 % 0 mm 0 W/m2
20:00 -14.3 °C -14.6 °C 34750.5 hPa Calm     96 % 0 mm 0 W/m2
20:10 -14.5 °C -14.8 °C 34750.5 hPa Calm     96 % 0 mm 0 W/m2
20:15 -14.6 °C -14.9 °C 34750.5 hPa Calm     96 % 0 mm 0 W/m2
20:25 -14.7 °C -15 °C 34750.5 hPa Calm     96 % 0 mm 0 W/m2
20:35 -14.9 °C -15.2 °C 34750.5 hPa Calm     96 % 0 mm 0 W/m2
20:40 -14.7 °C -14.9 °C 34750.5 hPa Calm     97 % 0 mm 0 W/m2
20:45 -14.7 °C -14.9 °C 34750.5 hPa Calm     97 % 0 mm 0 W/m2
20:50 -14.7 °C -15 °C 34750.5 hPa Calm     96 % 0 mm 0 W/m2
20:55 -14.8 °C -15.1 °C 34750.5 hPa Calm     96 % 0 mm 0 W/m2
21:00 -14.9 °C -15.2 °C 34750.5 hPa Calm     96 % 0 mm 0 W/m2
21:10 -14.9 °C -15.2 °C 34750.5 hPa Calm     97 % 0 mm 0 W/m2
21:15 -15.1 °C -15.4 °C 34750.5 hPa Calm     96 % 0 mm 0 W/m2
21:20 -15.2 °C -15.6 °C 34750.5 hPa Calm     96 % 0 mm 0 W/m2
21:25 -15.2 °C -15.4 °C 34750.5 hPa Calm     97 % 0 mm 0 W/m2
21:30 -15.3 °C -15.7 °C 34750.5 hPa Calm     96 % 0 mm 0 W/m2
21:40 -15.3 °C -15.6 °C 34750.5 hPa Calm     97 % 0 mm 0 W/m2
21:45 -15.3 °C -15.6 °C 34750.5 hPa Calm     97 % 0 mm 0 W/m2
21:50 -15.3 °C -15.6 °C 34750.5 hPa Calm     97 % 0 mm 0 W/m2
22:00 -15.4 °C -15.6 °C 34750.5 hPa Calm     97 % 0 mm 0 W/m2
22:10 -15.2 °C -15.5 °C 34750.5 hPa Calm     97 % 0 mm 0 W/m2
22:15 -15.2 °C -15.5 °C 34750.5 hPa Calm     97 % 0 mm 0 W/m2
22:25 -15.2 °C -15.5 °C 34750.5 hPa Calm     97 % 0 mm 0 W/m2
22:30 -15.2 °C -15.5 °C 34750.5 hPa Calm     97 % 0 mm 0 W/m2
22:40 -15.2 °C -15.5 °C 34740.4 hPa Calm     97 % 0 mm 0 W/m2
22:45 -15.2 °C -15.4 °C 34740.4 hPa Calm     97 % 0 mm 0 W/m2
22:50 -15.2 °C -15.4 °C 34740.4 hPa Calm     97 % 0 mm 0 W/m2
23:00 -15.1 °C -15.3 °C 34740.4 hPa Calm     97 % 0 mm 0 W/m2
23:10 -14.7 °C -14.9 °C 34740.4 hPa Calm     97 % 0 mm 0 W/m2
23:15 -14.6 °C -14.8 °C 34740.4 hPa Calm     97 % 0 mm 0 W/m2
23:20 -14.5 °C -14.8 °C 34740.4 hPa Calm     96 % 0 mm 0 W/m2
23:25 -14.5 °C -14.8 °C 34740.4 hPa Calm     96 % 0 mm 0 W/m2
23:30 -14.4 °C -14.8 °C 34740.4 hPa Calm     96 % 0 mm 0 W/m2
23:40 -14.4 °C -14.8 °C 34726.8 hPa Calm     95 % 0 mm 0 W/m2
23:45 -14.3 °C -14.7 °C 34726.8 hPa Calm     95 % 0 mm 0 W/m2
23:50 -14.3 °C -14.8 °C 34726.8 hPa Calm     94 % 0 mm 0 W/m2
Avec l'autorisation de Weather Underground - 1.5 mb